Latest Coastal Weather Observations for Yanakie

IDV60701

Issued at 9:01 pm EDT Tuesday 9 February 2016 (issued every 10 minutes, with the page automatically refreshed every 10 minutes)

About coastal observations | Map of coastal stations | Coastal observations for VIC | Marine services | Other Formats
Station Details ID: 085301 Name: YANAKIE Lat: -38.81 Lon: 146.19 Height: 13.3 m
Data from the previous 72 hours. | See also: Recent months at Yanakie
Date/Time
EDT
Temp

°C
Wind Pressure Rain
since 9am
mm
Weather Cloud Vis
km
Sea
Height
m
Swell
Dir
 
Speed
knots
Gust
knots
hPa Trend Height
m
Period
s
Dir
09/09:00pm 17.4 S 3 3 1017.4 - 0.0 - - - - - - -
09/08:30pm 17.9 SSW 2 3 1017.5 - 0.0 - - - - - - -
09/08:00pm 19.0 SSW 4 5 1017.6 - 0.0 - - - - - - -
09/07:30pm 19.8 SSW 5 6 1017.4 - 0.0 - - - - - - -
09/07:00pm 20.0 SSW 6 9 1017.4 - 0.0 - - - - - - -
09/06:30pm 20.7 SSW 7 10 1017.4 - 0.0 - - - - - - -
09/06:00pm 21.1 SSW 7 10 1017.4 - 0.0 - - - - - - -
09/05:30pm 21.2 SSW 7 9 1017.7 - 0.0 - - - - - - -
09/05:00pm 21.4 SSW 8 11 1017.9 - 0.0 - - - - - - -
09/04:30pm 21.7 SSW 9 13 1018.2 - 0.0 - - - - - - -
09/04:00pm 21.9 SSW 10 13 1018.5 - 0.0 - - - - - - -
09/03:30pm 21.9 SSW 10 14 1018.8 - 0.0 - - - - - - -
09/03:00pm 22.0 SSW 10 14 1019.1 - 0.0 - - - - - - -
09/02:30pm 21.7 SSW 9 13 1019.4 - 0.0 - - - - - - -
09/02:00pm 21.9 SSW 9 13 1019.6 - 0.0 - - - - - - -
09/01:30pm 22.5 SSW 9 12 1019.7 - 0.0 - - - - - - -
09/01:00pm 21.6 SSW 8 12 1020.1 - 0.0 - - - - - - -
09/12:30pm 21.4 SW 8 12 1020.6 - 0.0 - - - - - - -
09/12:00pm 21.2 SW 8 12 1020.8 - 0.0 - - - - - - -
09/11:30am 20.7 SSW 8 12 1021.0 - 0.0 - - - - - - -
09/11:00am 20.6 SSW 7 10 1021.1 - 0.0 - - - - - - -
09/10:30am 20.5 SW 6 9 1021.2 - 0.0 - - - - - - -
09/10:00am 20.3 WSW 8 11 1021.3 - 0.0 - - - - - - -
09/09:30am 19.6 WSW 8 10 1021.4 - 0.0 - - - - - - -
09/09:00am 19.4 W 7 11 1021.2 - 0.0 - - - - - - -
09/08:30am 18.6 W 7 9 1021.2 - 0.0 - - - - - - -
09/08:00am 17.2 WNW 5 6 1021.2 - 0.0 - - - - - - -
09/07:30am 15.6 WNW 4 6 1021.1 - 0.0 - - - - - - -
09/07:00am 14.8 NNW 4 5 1021.1 - 0.0 - - - - - - -
09/06:30am 14.2 NW 4 5 1020.8 - 0.0 - - - - - - -
09/06:00am 14.7 WNW 4 5 1020.5 - 0.0 - - - - - - -
09/05:30am 15.3 WSW 4 5 1020.4 - 0.0 - - - - - - -
09/05:00am 16.9 WSW 7 9 1020.4 - 0.0 - - - - - - -
09/04:30am 17.3 WSW 6 8 1020.4 - 0.0 - - - - - - -
09/04:00am 17.4 WSW 7 9 1020.6 - 0.0 - - - - - - -
09/03:30am 17.7 WSW 8 11 1020.6 - 0.0 - - - - - - -
09/03:00am 17.9 WSW 9 12 1020.7 - 0.0 - - - - - - -
09/02:30am 17.7 SW 8 11 1021.0 - 0.0 - - - - - - -
09/02:00am 17.8 SW 8 12 1021.3 - 0.0 - - - - - - -
09/01:30am 17.8 WSW 8 11 1021.6 - 0.0 - - - - - - -
09/01:00am 17.1 W 6 11 1021.8 - 0.0 - - - - - - -
09/12:30am 17.7 WSW 8 11 1021.9 - 0.0 - - - - - - -
09/12:00am 17.5 WSW 7 10 1021.9 - 0.0 - - - - - - -
 
Date/Time
EDT
Temp

°C
Wind Pressure Rain
since 9am
mm
Weather Cloud Vis
km
Sea
Height
m
Swell
Dir
 
Speed
knots
Gust
knots
hPa Trend Height
m
Period
s
Dir
08/11:30pm 17.2 WSW 9 13 1022.1 - 0.0 - - - - - - -
08/11:00pm 17.2 WSW 9 12 1022.3 - 0.0 - - - - - - -
08/10:30pm 17.7 SW 8 12 1022.4 - 0.0 - - - - - - -
08/10:00pm 17.8 SW 11 14 1022.3 - 0.0 - - - - - - -
08/09:30pm 18.1 SW 12 17 1022.1 - 0.0 - - - - - - -
08/09:00pm 17.9 WSW 11 17 1021.8 - 0.0 - - - - - - -
08/08:30pm 18.2 WSW 11 15 1021.6 - 0.0 - - - - - - -
08/08:00pm 18.6 WSW 12 16 1021.5 - 0.0 - - - - - - -
08/07:30pm 19.4 WSW 12 16 1021.3 - 0.0 - - - - - - -
08/07:00pm 19.9 WSW 14 19 1020.9 - 0.0 - - - - - - -
08/06:30pm 20.3 WSW 13 17 1020.8 - 0.0 - - - - - - -
08/06:00pm 20.9 WSW 13 18 1020.9 - 0.0 - - - - - - -
08/05:30pm 20.8 SW 15 20 1021.1 - 0.0 - - - - - - -
08/05:00pm 21.0 SW 14 20 1021.3 - 0.0 - - - - - - -
08/04:30pm 21.9 SW 15 19 1021.3 - 0.0 - - - - - - -
08/04:00pm 21.6 SW 15 20 1021.4 - 0.0 - - - - - - -
08/03:30pm 21.4 SW 15 20 1021.6 - 0.0 - - - - - - -
08/03:00pm 22.0 SW 15 20 1021.5 - 0.0 - - - - - - -
08/02:30pm 22.1 SW 16 21 1021.6 - 0.0 - - - - - - -
08/02:00pm 21.7 SW 16 20 1021.5 - 0.0 - - - - - - -
08/01:30pm 22.0 SW 16 20 1021.6 - 0.0 - - - - - - -
08/01:00pm 21.4 SW 15 18 1021.6 - 0.0 - - - - - - -
08/12:30pm 22.7 SW 15 18 1021.7 - 0.0 - - - - - - -
08/12:00pm 20.8 WSW 15 19 1021.7 - 0.0 - - - - - - -
08/11:30am 20.8 SW 15 19 1021.7 - 0.0 - - - - - - -
08/11:00am 20.9 WSW 13 17 1021.6 - 0.0 - - - - - - -
08/10:30am 21.9 WSW 12 17 1021.4 - 0.0 - - - - - - -
08/10:00am 21.5 WSW 11 15 1021.3 - 0.0 - - - - - - -
08/09:30am 20.7 WSW 10 13 1021.1 - 0.0 - - - - - - -
08/09:00am 20.5 WSW 11 15 1020.9 - 0.0 - - - - - - -
08/08:30am 19.7 W 9 12 1020.7 - 0.0 - - - - - - -
08/08:00am 18.5 W 7 9 1020.5 - 0.0 - - - - - - -
08/07:30am 17.1 WNW 5 7 1020.2 - 0.0 - - - - - - -
08/07:00am 16.1 WNW 5 7 1020.0 - 0.0 - - - - - - -
08/06:30am 16.7 WNW 4 6 1019.8 - 0.0 - - - - - - -
08/06:00am 17.1 W 6 8 1019.5 - 0.0 - - - - - - -
08/05:30am 17.6 W 6 8 1019.4 - 0.0 - - - - - - -
08/05:00am 18.2 WSW 7 10 1019.2 - 0.0 - - - - - - -
08/04:30am 18.7 WSW 9 12 1019.2 - 0.0 - - - - - - -
08/04:00am 18.6 W 9 11 1018.9 - 0.0 - - - - - - -
08/03:30am 18.9 WSW 8 10 1018.8 - 0.0 - - - - - - -
08/03:00am 18.5 W 7 11 1018.9 - 0.0 - - - - - - -
08/02:30am 17.8 NW 4 5 1018.9 - 0.0 - - - - - - -
08/02:00am 18.3 W 6 8 1019.1 - 0.0 - - - - - - -
08/01:30am 18.1 W 5 8 1019.1 - 0.0 - - - - - - -
08/01:00am 18.7 W 9 12 1019.2 - 0.0 - - - - - - -
08/12:30am 18.5 W 8 11 1019.0 - 0.0 - - - - - - -
08/12:00am 17.7 W 6 8 1018.8 - 0.0 - - - - - - -
 
Date/Time
EDT
Temp

°C
Wind Pressure Rain
since 9am
mm
Weather Cloud Vis
km
Sea
Height
m
Swell
Dir
 
Speed
knots
Gust
knots
hPa Trend Height
m
Period
s
Dir
07/11:30pm 17.9 WNW 5 6 1018.6 - 0.0 - - - - - - -
07/11:00pm 16.1 W 3 5 1018.6 - 0.0 - - - - - - -
07/10:30pm 16.5 W 1 3 1018.5 - 0.0 - - - - - - -
07/10:00pm 17.5 W 1 1 1018.5 - 0.0 - - - - - - -
07/09:30pm 18.2 WSW 3 3 1018.1 - 0.0 - - - - - - -
07/09:00pm 19.1 W 2 3 1017.7 - 0.0 - - - - - - -
07/08:30pm 19.8 SW 4 4 1017.4 - 0.0 - - - - - - -
07/08:00pm 22.2 SSW 3 4 1017.0 - 0.0 - - - - - - -
07/07:30pm 23.3 SSW 5 6 1016.8 - 0.0 - - - - - - -
07/07:00pm 24.3 SW 7 9 1016.5 - 0.0 - - - - - - -
07/06:30pm 24.8 SSW 6 7 1016.3 - 0.0 - - - - - - -
07/06:00pm 25.3 SW 6 7 1016.3 - 0.0 - - - - - - -
07/05:30pm 25.3 SSW 7 10 1016.2 - 0.0 - - - - - - -
07/05:00pm 26.0 SW 6 8 1016.0 - 0.0 - - - - - - -
07/04:30pm 26.3 S 5 7 1015.9 - 0.0 - - - - - - -
07/04:00pm 25.5 S 6 9 1016.0 - 0.0 - - - - - - -
07/03:30pm 25.0 SSW 10 13 1016.2 - 0.0 - - - - - - -
07/03:00pm 25.6 SSW 11 14 1016.2 - 0.0 - - - - - - -
07/02:30pm 26.9 SW 11 14 1016.2 - 0.0 - - - - - - -
07/02:00pm 28.9 E 6 11 1016.1 - 0.0 - - - - - - -
07/01:30pm 28.4 ENE 6 9 1016.0 - 0.0 - - - - - - -
07/01:00pm 27.4 ENE 5 8 1016.1 - 0.0 - - - - - - -
07/12:30pm 26.9 E 5 7 1016.4 - 0.0 - - - - - - -
07/12:00pm 25.2 NE 5 7 1016.6 - 0.0 - - - - - - -
07/11:30am 24.6 ENE 4 6 1016.7 - 0.0 - - - - - - -
07/11:00am 23.7 ENE 5 7 1016.9 - 0.0 - - - - - - -
07/10:30am 22.7 E 5 7 1016.9 - 0.0 - - - - - - -
07/10:00am 21.6 ENE 6 7 1016.9 - 0.0 - - - - - - -
07/09:30am 20.9 NE 4 7 1016.8 - 0.0 - - - - - - -
07/09:00am 20.5 ENE 4 6 1016.7 - 0.0 - - - - - - -
07/08:30am 19.0 NNE 4 5 1016.6 - 0.0 - - - - - - -
07/08:00am 17.4 N 2 3 1016.3 - 0.0 - - - - - - -
07/07:30am 16.2 N 3 3 1016.0 - 0.0 - - - - - - -
07/07:00am 15.0 NNE 1 2 1015.8 - 0.0 - - - - - - -
07/06:30am 16.0 NNE 2 3 1015.5 - 0.0 - - - - - - -
07/06:00am 17.5 NE 4 6 1015.2 - 0.0 - - - - - - -
07/05:30am 18.0 NE 5 8 1014.9 - 0.0 - - - - - - -
07/05:00am 18.1 NE 6 9 1014.8 - 0.0 - - - - - - -
07/04:30am 18.4 ENE 6 9 1014.9 - 0.0 - - - - - - -
07/04:00am 18.5 ENE 7 9 1015.0 - 0.0 - - - - - - -
07/03:30am 18.7 ENE 8 12 1015.0 - 0.0 - - - - - - -
07/03:00am 18.8 ENE 8 12 1015.2 - 0.0 - - - - - - -
07/02:30am 18.9 ENE 9 13 1015.4 - 0.0 - - - - - - -
07/02:00am 18.9 ENE 9 13 1015.6 - 0.0 - - - - - - -
07/01:30am 19.1 ENE 10 14 1015.9 - 0.0 - - - - - - -
07/01:00am 19.1 ENE 10 14 1016.1 - 0.0 - - - - - - -
07/12:30am 19.1 ENE 11 16 1016.2 - 0.0 - - - - - - -
07/12:00am 19.3 ENE 11 16 1016.3 - 0.0 - - - - - - -
 
Date/Time
EDT
Temp

°C
Wind Pressure Rain
since 9am
mm
Weather Cloud Vis
km
Sea
Height
m
Swell
Dir
 
Speed
knots
Gust
knots
hPa Trend Height
m
Period
s
Dir
06/11:30pm 19.5 ENE 12 16 1016.3 - 0.0 - - - - - - -
06/11:00pm 19.6 ENE 13 18 1016.4 - 0.0 - - - - - - -
06/10:30pm 19.9 ENE 13 19 1016.6 - 0.0 - - - - - - -
06/10:00pm 20.0 ENE 13 18 1016.6 - 0.0 - - - - - - -
06/09:30pm 20.2 ENE 13 19 1016.6 - 0.0 - - - - - - -

Other Formats:

Comma delimited format used in spreadsheet applications
http://www.bom.gov.au/fwo/IDV60701/IDV60701.94911.axf

JavaScript Object Notation format (JSON) in row-major order
http://www.bom.gov.au/fwo/IDV60701/IDV60701.94911.json